createdAt,value
2019-05-10T00:00:10.646Z,29.70
2019-05-10T00:02:56.166Z,29.60
2019-05-10T00:05:42.051Z,29.50
2019-05-10T00:08:27.861Z,29.50
2019-05-10T00:10:57.091Z,29.40
2019-05-10T00:13:25.472Z,29.40
2019-05-10T00:15:53.455Z,29.40
2019-05-10T00:18:21.387Z,29.30
2019-05-10T00:20:48.987Z,29.10
2019-05-10T00:23:16.569Z,29.20
2019-05-10T00:25:44.140Z,29.20
2019-05-10T00:28:11.719Z,29.20
2019-05-10T00:30:39.305Z,29.10
2019-05-10T00:33:06.901Z,29.00
2019-05-10T00:35:34.487Z,29.00
2019-05-10T00:38:02.055Z,28.90
2019-05-10T00:40:29.709Z,29.00
2019-05-10T00:42:57.282Z,28.80
2019-05-10T00:45:24.883Z,28.40
2019-05-10T00:47:52.436Z,28.80
2019-05-10T00:50:19.999Z,28.70
2019-05-10T00:52:47.571Z,28.60
2019-05-10T00:55:18.816Z,28.70
2019-05-10T00:57:44.443Z,28.60
2019-05-10T01:00:12.070Z,28.70
2019-05-10T01:02:39.621Z,28.50
2019-05-10T01:05:07.207Z,28.60
2019-05-10T01:07:34.879Z,29.20
2019-05-10T01:10:02.634Z,28.50
2019-05-10T01:12:30.222Z,28.60
2019-05-10T01:14:57.767Z,28.60
2019-05-10T01:17:25.393Z,28.80
2019-05-10T01:19:53.017Z,28.70
2019-05-10T01:22:20.604Z,28.80
2019-05-10T01:24:48.161Z,28.80
2019-05-10T01:27:15.800Z,28.80
2019-05-10T01:29:43.451Z,28.90
2019-05-10T01:32:11.113Z,29.00
2019-05-10T01:34:38.717Z,29.00
2019-05-10T01:37:06.257Z,28.90
2019-05-10T01:39:33.858Z,28.90
2019-05-10T01:42:01.448Z,28.70
2019-05-10T01:44:29.106Z,28.90
2019-05-10T01:46:56.663Z,28.70
2019-05-10T01:49:24.270Z,28.70
2019-05-10T01:51:51.884Z,28.80
2019-05-10T01:54:19.452Z,28.80
2019-05-10T01:56:47.009Z,29.00
2019-05-10T01:59:14.628Z,28.90
2019-05-10T02:01:42.209Z,29.00
2019-05-10T02:04:09.797Z,28.80
2019-05-10T02:06:37.368Z,29.00
2019-05-10T02:09:06.134Z,29.50
2019-05-10T02:11:33.694Z,28.80
2019-05-10T02:14:01.306Z,28.80
2019-05-10T02:16:28.900Z,28.70
2019-05-10T02:18:56.518Z,28.80
2019-05-10T02:21:24.058Z,28.80
2019-05-10T02:23:51.618Z,28.90
2019-05-10T02:26:19.244Z,28.90
2019-05-10T02:28:46.806Z,29.00
2019-05-10T02:31:14.412Z,28.90
2019-05-10T02:33:42.060Z,29.00
2019-05-10T02:36:09.611Z,29.50
2019-05-10T02:38:37.255Z,28.90
2019-05-10T02:41:04.841Z,29.00
2019-05-10T02:43:32.381Z,28.90
2019-05-10T02:45:59.995Z,28.90
2019-05-10T02:48:27.569Z,29.00
2019-05-10T02:50:55.222Z,29.00
2019-05-10T02:53:22.881Z,29.00
2019-05-10T02:55:50.495Z,29.00
2019-05-10T02:58:18.095Z,28.80
2019-05-10T03:00:45.674Z,29.30
2019-05-10T03:03:13.228Z,28.80
2019-05-10T03:05:42.006Z,28.80
2019-05-10T03:08:10.143Z,28.60
2019-05-10T03:10:38.009Z,28.80
2019-05-10T03:13:05.770Z,28.80
2019-05-10T03:15:35.008Z,28.80
2019-05-10T03:18:02.818Z,28.90
2019-05-10T03:20:31.573Z,28.90
2019-05-10T03:22:59.134Z,28.80
2019-05-10T03:25:26.716Z,28.80
2019-05-10T03:27:54.394Z,28.90
2019-05-10T03:30:22.139Z,28.70
2019-05-10T03:32:49.746Z,28.60
2019-05-10T03:35:17.322Z,28.80
2019-05-10T03:37:44.918Z,28.70
2019-05-10T03:40:12.495Z,28.70
2019-05-10T03:42:40.067Z,28.50
2019-05-10T03:45:07.683Z,28.60
2019-05-10T03:47:35.243Z,28.70
2019-05-10T03:50:03.679Z,28.80
2019-05-10T03:52:31.344Z,28.70
2019-05-10T03:54:58.903Z,28.60
2019-05-10T03:57:26.528Z,28.50
2019-05-10T03:59:54.133Z,28.50
2019-05-10T04:02:21.749Z,28.50
2019-05-10T04:04:49.286Z,28.50
2019-05-10T04:07:16.945Z,28.50
2019-05-10T04:09:44.555Z,28.50
2019-05-10T04:12:12.120Z,28.50
2019-05-10T04:14:39.704Z,28.70
2019-05-10T04:17:07.284Z,29.30
2019-05-10T04:19:34.878Z,29.30
2019-05-10T04:22:02.558Z,29.30
2019-05-10T04:24:30.238Z,30.00
2019-05-10T04:26:57.802Z,29.60
2019-05-10T04:29:25.349Z,29.60
2019-05-10T04:31:52.936Z,29.50
2019-05-10T04:34:20.524Z,29.60
2019-05-10T04:36:48.108Z,29.40
2019-05-10T04:39:15.659Z,29.40
2019-05-10T04:41:43.263Z,29.40
2019-05-10T04:44:10.865Z,29.40
2019-05-10T04:46:38.658Z,29.30
2019-05-10T04:49:06.278Z,29.30
2019-05-10T04:51:33.875Z,29.30
2019-05-10T04:54:01.441Z,29.30
2019-05-10T04:56:29.050Z,29.20
2019-05-10T04:58:56.712Z,29.20
2019-05-10T05:01:24.287Z,28.70
2019-05-10T05:03:51.844Z,28.80
2019-05-10T05:06:19.482Z,28.50
2019-05-10T05:08:47.073Z,28.60
2019-05-10T05:11:14.611Z,28.50
2019-05-10T05:13:42.227Z,28.50
2019-05-10T05:16:09.799Z,28.60
2019-05-10T05:18:37.397Z,28.70
2019-05-10T05:21:05.008Z,28.60
2019-05-10T05:23:32.559Z,28.60
2019-05-10T05:26:00.146Z,29.10
2019-05-10T05:28:27.729Z,29.20
2019-05-10T05:30:55.319Z,29.20
2019-05-10T05:33:22.885Z,29.00
2019-05-10T05:35:50.509Z,29.30
2019-05-10T05:38:18.136Z,29.30
2019-05-10T05:40:45.795Z,29.50
2019-05-10T05:43:13.414Z,29.90
2019-05-10T05:45:40.993Z,30.30
2019-05-10T05:48:08.538Z,30.40
2019-05-10T05:50:36.142Z,30.70
2019-05-10T05:53:03.729Z,31.90
2019-05-10T05:55:32.278Z,31.70
2019-05-10T05:58:04.726Z,31.10
2019-05-10T06:00:29.411Z,31.20
2019-05-10T06:02:57.006Z,31.20
2019-05-10T06:05:33.975Z,30.80
2019-05-10T06:07:53.911Z,31.60
2019-05-10T06:10:21.604Z,35.40
2019-05-10T06:12:50.337Z,34.40
2019-05-10T06:15:23.228Z,33.40
2019-05-10T06:17:56.161Z,34.30
2019-05-10T06:20:17.134Z,33.60
2019-05-10T06:23:04.160Z,32.60
2019-05-10T06:25:13.994Z,32.40
2019-05-10T06:27:43.223Z,32.60
2019-05-10T06:30:11.046Z,32.00
2019-05-10T06:32:38.652Z,32.00
2019-05-10T06:35:06.227Z,31.80
2019-05-10T06:37:33.834Z,31.60
2019-05-10T06:40:01.408Z,31.60
2019-05-10T06:42:34.479Z,31.80
2019-05-10T06:44:58.315Z,31.50
2019-05-10T06:47:25.858Z,31.60
2019-05-10T06:49:53.487Z,32.00
2019-05-10T06:52:21.764Z,31.60
2019-05-10T06:54:50.493Z,31.50
2019-05-10T06:57:19.347Z,31.30
2019-05-10T06:59:47.040Z,31.80
2019-05-10T07:02:14.614Z,31.70
2019-05-10T07:04:42.194Z,31.30
2019-05-10T07:07:22.096Z,31.50
2019-05-10T07:10:01.563Z,31.20
2019-05-10T07:12:09.371Z,31.30
2019-05-10T07:14:45.076Z,31.30
2019-05-10T07:17:07.125Z,31.10
2019-05-10T07:19:40.680Z,31.50
2019-05-10T07:22:04.009Z,31.30
2019-05-10T07:24:31.605Z,31.00
2019-05-10T07:27:02.252Z,30.80
2019-05-10T07:29:30.379Z,30.60
2019-05-10T07:31:57.834Z,30.50
2019-05-10T07:34:26.356Z,30.40
2019-05-10T07:36:53.981Z,30.20
2019-05-10T07:39:21.563Z,30.30
2019-05-10T07:41:49.177Z,30.40
2019-05-10T07:44:16.848Z,30.20
2019-05-10T07:46:46.492Z,30.40
2019-05-10T07:49:13.731Z,34.30
2019-05-10T07:51:41.306Z,35.00
2019-05-10T07:54:08.858Z,35.00
2019-05-10T07:56:38.954Z,34.30
2019-05-10T07:59:05.760Z,34.30
2019-05-10T08:01:34.959Z,34.30
2019-05-10T08:04:02.722Z,33.50
2019-05-10T08:06:33.956Z,33.50
2019-05-10T08:09:04.110Z,34.30
2019-05-10T08:11:28.986Z,34.40
2019-05-10T08:13:57.835Z,34.00
2019-05-10T08:16:25.883Z,33.50
2019-05-10T08:18:55.670Z,33.10
2019-05-10T08:21:26.259Z,32.80
2019-05-10T08:23:53.986Z,32.90
2019-05-10T08:26:24.570Z,32.50
2019-05-10T08:28:52.611Z,32.60
2019-05-10T08:31:22.163Z,32.70
2019-05-10T08:33:53.694Z,32.20
2019-05-10T08:36:18.567Z,32.10
2019-05-10T08:38:56.423Z,32.10
2019-05-10T08:41:18.255Z,31.90
2019-05-10T08:43:44.777Z,31.80
2019-05-10T08:46:12.363Z,32.30
2019-05-10T08:48:46.570Z,31.70
2019-05-10T08:51:09.260Z,31.80
2019-05-10T08:53:36.870Z,31.80
2019-05-10T08:56:07.645Z,31.50
2019-05-10T08:58:37.215Z,31.40
2019-05-10T09:01:16.704Z,31.50
2019-05-10T09:03:32.390Z,31.30
2019-05-10T09:06:05.370Z,31.90
2019-05-10T09:08:31.692Z,31.00
2019-05-10T09:10:58.529Z,30.90
2019-05-10T09:13:28.856Z,30.80
2019-05-10T09:15:57.005Z,30.60
2019-05-10T09:18:24.870Z,30.80
2019-05-10T09:20:54.251Z,31.00
2019-05-10T09:23:22.846Z,30.90
2019-05-10T09:25:51.917Z,30.50
2019-05-10T09:28:21.679Z,30.60
2019-05-10T09:30:57.554Z,30.60
2019-05-10T09:33:18.377Z,30.60
2019-05-10T09:35:51.524Z,30.60
2019-05-10T09:38:15.313Z,30.30
2019-05-10T09:40:51.390Z,30.00
2019-05-10T09:43:14.809Z,30.00
2019-05-10T09:45:42.373Z,30.10
2019-05-10T09:48:12.088Z,30.20
2019-05-10T09:50:44.853Z,29.90
2019-05-10T09:53:10.259Z,29.80
2019-05-10T09:55:38.215Z,29.80
2019-05-10T09:58:08.436Z,29.90
2019-05-10T10:00:37.970Z,29.70
2019-05-10T10:03:04.608Z,29.50
2019-05-10T10:05:32.181Z,29.40
2019-05-10T10:08:03.687Z,29.40
2019-05-10T10:10:32.299Z,29.20
2019-05-10T10:13:08.400Z,29.00
2019-05-10T10:15:33.624Z,29.10
2019-05-10T10:17:58.300Z,29.00
2019-05-10T10:20:29.801Z,28.90
2019-05-10T10:22:55.290Z,28.80
2019-05-10T10:25:22.907Z,28.80
2019-05-10T10:27:50.569Z,28.90
2019-05-10T10:30:21.578Z,28.80
2019-05-10T10:32:47.767Z,28.80
2019-05-10T10:35:18.868Z,28.80
2019-05-10T10:37:47.570Z,28.80
2019-05-10T10:40:18.170Z,28.90
2019-05-10T10:42:47.201Z,28.80
2019-05-10T10:45:13.847Z,28.80
2019-05-10T10:47:41.415Z,28.80
2019-05-10T10:50:13.159Z,29.40
2019-05-10T10:52:38.338Z,29.40
2019-05-10T10:55:11.233Z,28.80
2019-05-10T10:57:37.363Z,28.90
2019-05-10T11:00:09.429Z,28.80
2019-05-10T11:02:36.991Z,28.80
2019-05-10T11:05:05.411Z,28.80
2019-05-10T11:07:35.899Z,28.80
2019-05-10T11:10:14.337Z,28.90
2019-05-10T11:12:31.869Z,28.80
2019-05-10T11:15:01.127Z,28.70
2019-05-10T11:17:30.787Z,29.00
2019-05-10T11:20:00.259Z,28.70
2019-05-10T11:22:27.660Z,28.90
2019-05-10T11:25:00.718Z,28.80
2019-05-10T11:27:24.635Z,28.80
2019-05-10T11:29:54.967Z,28.90
2019-05-10T11:32:21.574Z,28.80
2019-05-10T11:34:49.180Z,28.70
2019-05-10T11:37:18.440Z,28.80
2019-05-10T11:39:47.050Z,28.80
2019-05-10T11:42:15.589Z,28.80
2019-05-10T11:44:50.178Z,28.80
2019-05-10T11:47:22.927Z,28.80
2019-05-10T11:49:41.982Z,28.80
2019-05-10T11:52:12.895Z,28.80
2019-05-10T11:54:38.881Z,28.80
2019-05-10T11:57:10.893Z,28.80
2019-05-10T11:59:41.469Z,29.40
2019-05-10T12:02:10.339Z,28.80
2019-05-10T12:04:39.619Z,28.80
2019-05-10T12:07:09.798Z,28.80
2019-05-10T12:09:35.993Z,28.80
2019-05-10T12:12:03.745Z,28.90
2019-05-10T12:14:31.351Z,28.80
2019-05-10T12:17:05.621Z,28.80
2019-05-10T12:19:36.936Z,28.80
2019-05-10T12:21:57.510Z,28.20
2019-05-10T12:24:39.212Z,28.10
2019-05-10T12:29:23.814Z,28.30
2019-05-10T12:31:55.091Z,28.40
2019-05-10T12:34:20.864Z,28.00
2019-05-10T12:36:48.477Z,28.00
2019-05-10T12:39:16.038Z,28.00
2019-05-10T12:41:48.375Z,27.70
2019-05-10T12:44:12.968Z,27.80
2019-05-10T12:46:42.210Z,27.90
2019-05-10T12:49:11.965Z,27.90
2019-05-10T12:51:40.933Z,27.60
2019-05-10T12:54:11.248Z,27.60
2019-05-10T12:56:43.906Z,27.70
2019-05-10T12:59:07.722Z,27.70
2019-05-10T13:01:35.361Z,27.60
2019-05-10T13:04:13.421Z,25.20
2019-05-10T13:06:32.290Z,21.50
2019-05-10T13:08:59.876Z,20.00
2019-05-10T13:11:27.452Z,19.40
2019-05-10T13:13:55.079Z,19.80
2019-05-10T13:16:22.693Z,19.60
2019-05-10T13:18:52.531Z,20.20
2019-05-10T13:21:21.482Z,20.10
2019-05-10T13:23:53.360Z,20.30
2019-05-10T13:26:18.229Z,20.50
2019-05-10T13:28:45.799Z,21.00
2019-05-10T13:31:15.154Z,21.10
2019-05-10T13:33:44.429Z,21.80
2019-05-10T13:36:12.163Z,21.50
2019-05-10T13:38:43.924Z,21.30
2019-05-10T13:41:09.043Z,21.20
2019-05-10T13:43:36.679Z,21.30
2019-05-10T13:46:04.282Z,22.00
2019-05-10T13:48:31.837Z,21.50
2019-05-10T13:50:59.491Z,21.90
2019-05-10T13:53:27.036Z,22.20
2019-05-10T13:55:54.602Z,23.40
2019-05-10T13:58:22.185Z,23.50
2019-05-10T14:00:49.768Z,23.60
2019-05-10T14:03:17.360Z,23.70
2019-05-10T14:05:44.990Z,23.70
2019-05-10T14:08:12.537Z,23.30
2019-05-10T14:10:40.136Z,23.80
2019-05-10T14:13:07.727Z,23.90
2019-05-10T14:15:35.390Z,23.90
2019-05-10T14:18:03.027Z,24.00
2019-05-10T14:20:30.728Z,24.30
2019-05-10T14:23:01.009Z,24.80
2019-05-10T14:25:36.447Z,24.90
2019-05-10T14:27:58.024Z,25.00
2019-05-10T14:30:25.613Z,25.10
2019-05-10T14:32:53.158Z,25.30
2019-05-10T14:35:40.184Z,25.70
2019-05-10T14:38:10.472Z,26.00
2019-05-10T14:40:37.201Z,25.90
2019-05-10T14:43:04.801Z,26.00
2019-05-10T14:45:32.396Z,26.00
2019-05-10T14:47:59.970Z,26.20
2019-05-10T14:50:28.501Z,26.00
2019-05-10T14:52:56.282Z,26.10
2019-05-10T14:55:28.095Z,26.10
2019-05-10T14:57:53.340Z,26.20
2019-05-10T15:00:20.932Z,26.30
2019-05-10T15:02:48.502Z,26.50
2019-05-10T15:05:18.099Z,26.60
2019-05-10T15:07:45.860Z,26.50
2019-05-10T15:10:13.464Z,26.50
2019-05-10T15:12:41.090Z,26.50
2019-05-10T15:15:09.145Z,26.50
2019-05-10T15:17:36.749Z,26.50
2019-05-10T15:20:05.929Z,26.90
2019-05-10T15:22:35.556Z,26.40
2019-05-10T15:25:03.498Z,25.90
2019-05-10T15:27:31.067Z,25.60
2019-05-10T15:30:05.293Z,25.50
2019-05-10T15:32:27.959Z,25.30
2019-05-10T15:35:06.084Z,25.20
2019-05-10T15:37:25.062Z,25.10
2019-05-10T15:39:52.637Z,24.90
2019-05-10T15:42:22.042Z,24.90
2019-05-10T15:44:49.644Z,25.40
2019-05-10T15:47:20.473Z,26.00
2019-05-10T15:49:46.557Z,25.90
2019-05-10T15:52:17.795Z,25.90
2019-05-10T15:54:45.059Z,26.00
2019-05-10T15:57:14.497Z,25.80
2019-05-10T15:59:42.145Z,25.90
2019-05-10T16:02:09.723Z,26.40
2019-05-10T16:04:37.384Z,27.00
2019-05-10T16:07:09.441Z,26.70
2019-05-10T16:09:34.453Z,28.30
2019-05-10T16:12:08.011Z,31.80
2019-05-10T16:14:38.424Z,31.00
2019-05-10T16:17:00.733Z,36.70
2019-05-10T16:19:28.349Z,44.80
2019-05-10T16:21:58.105Z,45.00
2019-05-10T16:24:26.235Z,41.80
2019-05-10T16:26:59.876Z,35.70
2019-05-10T16:29:23.919Z,34.20
2019-05-10T16:31:51.525Z,33.30
2019-05-10T16:34:19.144Z,32.60
2019-05-10T16:36:46.726Z,32.30
2019-05-10T16:39:14.284Z,31.80
2019-05-10T16:41:41.857Z,31.30
2019-05-10T16:44:09.494Z,31.20
2019-05-10T16:46:37.062Z,30.80
2019-05-10T16:49:10.191Z,31.20
2019-05-10T16:51:34.006Z,30.20
2019-05-10T16:54:01.573Z,30.00
2019-05-10T16:56:29.216Z,30.00
2019-05-10T16:58:59.400Z,29.80
2019-05-10T17:01:27.753Z,29.70
2019-05-10T17:04:00.085Z,29.20
2019-05-10T17:06:24.781Z,29.50
2019-05-10T17:08:52.353Z,30.10
2019-05-10T17:11:19.955Z,29.20
2019-05-10T17:13:47.555Z,29.20
2019-05-10T17:16:17.001Z,29.20
2019-05-10T17:18:44.468Z,29.20
2019-05-10T17:21:12.071Z,29.20
2019-05-10T17:23:41.618Z,29.20
2019-05-10T17:26:09.009Z,29.20
2019-05-10T17:28:37.427Z,29.30
2019-05-10T17:31:07.574Z,29.40
2019-05-10T17:33:36.820Z,29.40
2019-05-10T17:36:08.519Z,29.20
2019-05-10T17:38:33.131Z,29.30
2019-05-10T17:41:00.794Z,29.30
2019-05-10T17:43:28.461Z,29.20
2019-05-10T17:45:56.067Z,29.90
2019-05-10T17:48:23.651Z,30.10
2019-05-10T17:50:51.226Z,30.00
2019-05-10T17:53:18.829Z,30.00
2019-05-10T17:55:49.344Z,29.90
2019-05-10T17:58:17.213Z,29.50
2019-05-10T18:00:45.556Z,29.50
2019-05-10T18:03:13.146Z,29.20
2019-05-10T18:05:41.237Z,29.20
2019-05-10T18:08:10.060Z,29.30
2019-05-10T18:10:37.642Z,29.10
2019-05-10T18:13:05.349Z,29.20
2019-05-10T18:15:34.501Z,29.10
2019-05-10T18:18:03.105Z,29.20
2019-05-10T18:20:41.168Z,29.10
2019-05-10T18:23:00.840Z,29.10
2019-05-10T18:25:28.409Z,29.70
2019-05-10T18:27:55.982Z,29.10
2019-05-10T18:30:23.565Z,29.10
2019-05-10T18:32:51.144Z,29.10
2019-05-10T18:35:18.750Z,29.10
2019-05-10T18:37:46.331Z,29.60
2019-05-10T18:40:17.196Z,29.70
2019-05-10T18:42:44.757Z,29.10
2019-05-10T18:45:12.408Z,29.50
2019-05-10T18:47:40.013Z,29.60
2019-05-10T18:50:07.574Z,29.60
2019-05-10T18:52:35.134Z,29.70
2019-05-10T18:55:02.759Z,29.60
2019-05-10T18:57:30.444Z,29.80
2019-05-10T18:59:58.026Z,29.70
2019-05-10T19:02:25.584Z,29.50
2019-05-10T19:04:54.281Z,29.30
2019-05-10T19:07:22.052Z,29.10
2019-05-10T19:09:49.618Z,29.00
2019-05-10T19:12:21.436Z,29.00
2019-05-10T19:14:46.697Z,29.10
2019-05-10T19:17:14.291Z,29.10
2019-05-10T19:19:42.369Z,29.00
2019-05-10T19:22:10.370Z,29.00
2019-05-10T19:24:38.077Z,29.00
2019-05-10T19:27:07.567Z,29.00
2019-05-10T19:29:38.846Z,29.00
2019-05-10T19:32:04.332Z,29.00
2019-05-10T19:34:31.896Z,29.00
2019-05-10T19:36:59.522Z,29.00
2019-05-10T19:39:27.123Z,29.00
2019-05-10T19:42:03.064Z,29.00
2019-05-10T19:44:24.072Z,29.00
2019-05-10T19:46:51.741Z,29.00
2019-05-10T19:49:19.311Z,29.00
2019-05-10T19:51:49.057Z,29.00
2019-05-10T19:54:19.625Z,29.20
2019-05-10T19:56:45.493Z,29.00
2019-05-10T19:59:13.572Z,29.00
2019-05-10T20:01:44.778Z,29.00
2019-05-10T20:04:10.557Z,29.00
2019-05-10T20:06:38.138Z,29.00
2019-05-10T20:09:06.435Z,29.00
2019-05-10T20:11:34.181Z,29.00
2019-05-10T20:14:01.808Z,29.00
2019-05-10T20:16:29.393Z,29.00
2019-05-10T20:18:56.964Z,29.00
2019-05-10T20:21:24.583Z,29.00
2019-05-10T20:23:52.191Z,29.00
2019-05-10T20:26:19.766Z,29.00
2019-05-10T20:28:47.378Z,29.00
2019-05-10T20:31:14.938Z,29.00
2019-05-10T20:33:42.528Z,29.00
2019-05-10T20:36:10.128Z,29.00
2019-05-10T20:38:37.762Z,29.00
2019-05-10T20:41:05.376Z,29.00
2019-05-10T20:43:32.940Z,29.00
2019-05-10T20:46:00.523Z,29.00
2019-05-10T20:48:28.125Z,29.00
2019-05-10T20:50:55.699Z,29.00
2019-05-10T20:53:23.296Z,29.00
2019-05-10T20:55:50.909Z,29.00
2019-05-10T20:58:18.490Z,29.00
2019-05-10T21:00:46.081Z,29.00
2019-05-10T21:03:13.675Z,29.00
2019-05-10T21:05:41.343Z,29.00
2019-05-10T21:08:16.459Z,29.00
2019-05-10T21:10:38.265Z,29.00
2019-05-10T21:13:05.839Z,29.00
2019-05-10T21:15:33.412Z,29.00
2019-05-10T21:18:00.982Z,29.00
2019-05-10T21:20:28.591Z,29.00
2019-05-10T21:22:59.173Z,29.00
2019-05-10T21:25:26.920Z,29.00
2019-05-10T21:27:56.117Z,29.00
2019-05-10T21:30:23.661Z,29.00
2019-05-10T21:32:51.253Z,29.00
2019-05-10T21:35:18.841Z,29.00
2019-05-10T21:37:46.420Z,29.00
2019-05-10T21:40:14.034Z,29.10
2019-05-10T21:42:41.651Z,29.10
2019-05-10T21:45:09.266Z,29.10
2019-05-10T21:47:50.664Z,29.00
2019-05-10T21:50:06.367Z,29.10
2019-05-10T21:52:33.952Z,29.10
2019-05-10T21:55:01.541Z,29.10
2019-05-10T21:57:29.318Z,29.10
2019-05-10T21:59:56.886Z,29.10
2019-05-10T22:02:24.491Z,29.10
2019-05-10T22:04:52.063Z,29.10
2019-05-10T22:07:19.665Z,29.10
2019-05-10T22:09:47.290Z,29.10
2019-05-10T22:12:14.893Z,29.10
2019-05-10T22:14:42.476Z,29.00
2019-05-10T22:17:10.065Z,29.10
2019-05-10T22:19:37.665Z,29.10
2019-05-10T22:22:05.302Z,29.10
2019-05-10T22:24:32.865Z,29.10
2019-05-10T22:27:00.466Z,29.10
2019-05-10T22:29:28.019Z,29.10
2019-05-10T22:31:55.627Z,29.10
2019-05-10T22:34:23.266Z,29.10
2019-05-10T22:36:50.851Z,29.10
2019-05-10T22:39:18.447Z,29.10
2019-05-10T22:41:46.006Z,29.10
2019-05-10T22:44:13.599Z,29.10
2019-05-10T22:46:41.940Z,29.10
2019-05-10T22:49:09.551Z,29.10
2019-05-10T22:51:37.149Z,29.10
2019-05-10T22:54:04.724Z,29.10
2019-05-10T22:56:32.305Z,29.10
2019-05-10T22:58:59.911Z,29.10
2019-05-10T23:01:27.494Z,29.00
2019-05-10T23:03:55.055Z,29.10
2019-05-10T23:06:22.656Z,29.10
2019-05-10T23:08:50.237Z,29.00
2019-05-10T23:11:17.843Z,29.10
2019-05-10T23:13:45.466Z,29.00
2019-05-10T23:16:13.051Z,29.00
2019-05-10T23:18:40.633Z,29.00
2019-05-10T23:21:08.216Z,29.00
2019-05-10T23:23:35.785Z,29.00
2019-05-10T23:26:03.421Z,29.00
2019-05-10T23:28:30.966Z,29.00
2019-05-10T23:30:58.595Z,29.00
2019-05-10T23:33:26.267Z,29.00
2019-05-10T23:35:54.143Z,29.00
2019-05-10T23:38:21.759Z,29.00
2019-05-10T23:40:49.370Z,29.30
2019-05-10T23:43:16.948Z,29.00
2019-05-10T23:45:44.580Z,29.00
2019-05-10T23:48:12.175Z,29.60
2019-05-10T23:50:39.753Z,29.20
2019-05-10T23:53:07.362Z,29.00
2019-05-10T23:55:34.915Z,29.00
2019-05-10T23:58:02.517Z,28.90
